Time;durP1;ratioP1;P1;durP2;ratioP2;P2;SDS_P1;SDS_P2;PMS_P1;PMS_P2;Temp;Humidity;BMP_temperature;BMP_pressure;BME280_temperature;BME280_humidity;BME280_pressure;Samples;Min_cycle;Max_cycle;Signal;HPM_P1;HPM_P2
2021/01/02 00:00:52;;;;;;;34.92;20.90;;;;;;;4.62;64.54;94613.34;4990506;28;20026;-64
2021/01/02 00:03:20;;;;;;;29.50;20.42;;;;;;;4.63;64.73;94615.69;4991350;28;20404;-64
2021/01/02 00:06:00;;;;;;;32.88;20.00;;;;;;;4.57;64.35;94605.50;4992189;28;20522;-64
2021/01/02 00:08:28;;;;;;;26.73;20.52;;;;;;;4.53;64.52;94594.72;4992014;28;20133;-64
2021/01/02 00:11:21;;;;;;;29.08;19.77;;;;;;;4.69;63.91;94617.22;4992115;28;20035;-65
2021/01/02 00:14:20;;;;;;;27.05;19.95;;;;;;;4.67;64.20;94623.84;4991915;28;20042;-65
2021/01/02 00:16:53;;;;;;;26.55;19.15;;;;;;;4.14;64.57;94542.94;4992102;28;20085;-66
2021/01/02 00:19:31;;;;;;;29.42;19.92;;;;;;;4.65;64.36;94615.41;4990238;28;20097;-67
2021/01/02 00:22:09;;;;;;;30.98;20.63;;;;;;;4.51;64.35;94594.22;4993538;28;20030;-67
2021/01/02 00:24:37;;;;;;;31.00;22.05;;;;;;;4.48;64.46;94604.53;4990717;28;20097;-68
2021/01/02 00:27:07;;;;;;;31.30;20.50;;;;;;;4.26;64.73;94576.03;4990247;28;20038;-67
2021/01/02 00:29:55;;;;;;;28.83;19.70;;;;;;;3.85;64.89;94542.97;4991436;28;20038;-67
2021/01/02 00:32:42;;;;;;;28.38;18.33;;;;;;;4.22;65.25;94610.03;4991372;28;20076;-67
2021/01/02 00:35:26;;;;;;;27.45;18.58;;;;;;;4.50;64.81;94628.72;4991581;28;20038;-68
2021/01/02 00:38:06;;;;;;;25.20;18.35;;;;;;;4.21;64.57;94584.75;4990380;28;20508;-68
2021/01/02 00:40:34;;;;;;;24.15;17.83;;;;;;;4.31;64.44;94595.19;4989939;28;20050;-68
2021/01/02 00:42:59;;;;;;;26.48;19.00;;;;;;;4.24;64.67;94575.50;4991192;28;20034;-68
2021/01/02 00:45:27;;;;;;;26.65;18.63;;;;;;;4.49;64.27;94600.81;4993202;28;20496;-68
2021/01/02 00:47:54;;;;;;;28.83;19.17;;;;;;;4.67;64.20;94615.94;4999361;23;20324;-67
2021/01/02 00:50:21;;;;;;;25.88;18.80;;;;;;;4.67;64.26;94618.56;5002324;28;20693;-66
2021/01/02 00:52:47;;;;;;;28.45;18.73;;;;;;;4.65;64.09;94626.72;5010721;28;20034;-67
2021/01/02 00:55:24;;;;;;;25.13;18.23;;;;;;;4.60;64.02;94629.41;5010782;28;20030;-67
2021/01/02 00:57:49;;;;;;;23.42;18.17;;;;;;;4.66;64.33;94635.44;5012695;28;20066;-68
2021/01/02 01:00:25;;;;;;;25.45;17.90;;;;;;;4.68;63.94;94636.72;5029489;28;20080;-67
2021/01/02 01:03:00;;;;;;;25.60;18.77;;;;;;;4.67;64.12;94629.88;5030363;28;20058;-67
2021/01/02 01:05:30;;;;;;;39.03;24.67;;;;;;;3.82;66.80;94619.00;5029195;28;20124;-68
2021/01/02 01:07:56;;;;;;;36.83;24.70;;;;;;;3.80;67.04;94621.13;5030420;28;20043;-68
2021/01/02 01:10:27;;;;;;;39.33;25.75;;;;;;;4.14;66.83;94635.06;5028722;28;20128;-68
2021/01/02 01:13:26;;;;;;;38.28;25.55;;;;;;;4.25;67.03;94632.34;5030636;28;20049;-68
2021/01/02 01:15:51;;;;;;;39.97;24.95;;;;;;;3.74;68.22;94622.25;5029780;28;20046;-67
2021/01/02 01:18:17;;;;;;;38.80;25.10;;;;;;;3.37;69.75;94641.88;5029884;28;20050;-67
2021/01/02 01:21:06;;;;;;;39.95;25.92;;;;;;;2.82;72.00;94641.06;5030161;28;20045;-67
2021/01/02 01:23:49;;;;;;;44.92;27.23;;;;;;;2.40;74.24;94626.41;5029941;28;20050;-67
2021/01/02 01:26:37;;;;;;;44.42;26.90;;;;;;;2.57;73.93;94637.44;5030006;28;20056;-68
2021/01/02 01:29:03;;;;;;;44.65;27.23;;;;;;;2.80;73.33;94637.88;5029814;28;20087;-66
2021/01/02 01:31:43;;;;;;;45.63;27.42;;;;;;;3.09;72.14;94643.31;5029918;28;20495;-67
2021/01/02 01:34:11;;;;;;;42.00;26.85;;;;;;;3.29;71.55;94632.72;5029799;28;20116;-67
2021/01/02 01:36:36;;;;;;;41.40;26.30;;;;;;;3.35;70.93;94641.38;5030558;28;20379;-68
2021/01/02 01:39:04;;;;;;;38.53;25.40;;;;;;;3.44;70.24;94652.91;5028427;28;20042;-68
2021/01/02 01:41:37;;;;;;;39.08;25.17;;;;;;;3.20;70.86;94641.44;5029503;28;20160;-68
2021/01/02 01:44:08;;;;;;;40.88;25.85;;;;;;;3.32;71.08;94657.66;5029819;28;20045;-68
2021/01/02 01:46:35;;;;;;;39.33;26.20;;;;;;;2.84;72.33;94644.19;5029695;28;20037;-68
2021/01/02 01:49:06;;;;;;;44.28;27.02;;;;;;;2.90;72.35;94650.22;5028266;28;20037;-68
2021/01/02 01:51:58;;;;;;;38.13;25.10;;;;;;;2.78;72.57;94653.13;5030236;28;20034;-67
2021/01/02 01:55:00;;;;;;;39.97;26.58;;;;;;;2.83;73.34;94653.13;5030064;28;20060;-68
2021/01/02 01:57:26;;;;;;;;;;;;;;;2.68;74.16;94658.41;5030623;28;20167;-66
2021/01/02 01:59:55;;;;;;;42.33;24.83;;;;;;;2.64;74.20;94659.97;5044634;28;19975;-66
2021/01/02 02:02:29;;;;;;;49.35;26.60;;;;;;;2.66;73.95;94657.88;5029033;28;20494;-68
2021/01/02 02:05:05;;;;;;;43.95;26.42;;;;;;;2.19;75.91;94662.38;5029317;28;20049;-67
2021/01/02 02:07:47;;;;;;;42.90;27.10;;;;;;;2.76;74.12;94653.38;5029457;28;20033;-67
2021/01/02 02:10:30;;;;;;;51.72;29.80;;;;;;;2.94;73.74;94656.50;5029010;28;20029;-67
2021/01/02 02:12:58;;;;;;;46.95;29.48;;;;;;;3.00;73.00;94644.91;5030937;28;20105;-67
2021/01/02 02:15:29;;;;;;;50.90;29.65;;;;;;;2.68;73.80;94643.44;5028241;28;20056;-68
2021/01/02 02:18:07;;;;;;;47.95;29.85;;;;;;;2.77;73.54;94651.56;5029108;28;20052;-68
2021/01/02 02:20:34;;;;;;;51.67;29.95;;;;;;;2.43;75.07;94652.13;5029081;28;20048;-68
2021/01/02 02:23:03;;;;;;;51.33;31.15;;;;;;;2.41;75.44;94649.00;5027525;28;20974;-67
2021/01/02 02:25:44;;;;;;;49.20;30.20;;;;;;;2.37;75.86;94657.66;5026943;28;20034;-68
2021/01/02 02:28:27;;;;;;;51.17;30.33;;;;;;;2.30;75.22;94634.28;5028946;28;20494;-67
2021/01/02 02:30:54;;;;;;;53.10;31.77;;;;;;;2.49;75.08;94630.06;5029806;28;20029;-67
2021/01/02 02:33:24;;;;;;;50.58;31.10;;;;;;;2.77;74.47;94623.47;5028618;28;20050;-67
2021/01/02 02:35:49;;;;;;;49.58;30.83;;;;;;;2.74;73.75;94616.09;5028965;28;20033;-66
2021/01/02 02:38:15;;;;;;;49.90;30.10;;;;;;;2.98;73.82;94641.78;5028769;28;20400;-67
2021/01/02 02:40:41;;;;;;;51.92;31.52;;;;;;;2.94;73.47;94631.03;5028562;28;20388;-67
2021/01/02 02:43:08;;;;;;;51.78;30.83;;;;;;;2.62;74.46;94623.50;5027333;28;20029;-67
2021/01/02 02:45:34;;;;;;;44.35;30.08;;;;;;;2.67;74.44;94634.00;5030749;28;20549;-68
2021/01/02 02:48:03;;;;;;;54.15;30.70;;;;;;;2.33;74.88;94573.41;5028788;28;20045;-67
2021/01/02 02:50:31;;;;;;;47.58;29.83;;;;;;;2.57;75.01;94613.78;5027347;28;20071;-67
2021/01/02 02:53:12;;;;;;;50.45;31.15;;;;;;;2.65;74.88;94622.16;5028477;28;20137;-67
2021/01/02 02:55:38;;;;;;;52.22;31.75;;;;;;;2.76;75.01;94629.75;5028467;28;20128;-69
2021/01/02 02:58:04;;;;;;;52.08;30.80;;;;;;;2.81;74.43;94627.09;5028265;28;20056;-68
2021/01/02 03:00:30;;;;;;;52.05;30.77;;;;;;;2.44;76.09;94624.03;5030177;28;20152;-67
2021/01/02 03:02:55;;;;;;;49.05;29.75;;;;;;;2.38;75.82;94610.16;5028281;28;20132;-68
2021/01/02 03:05:20;;;;;;;50.97;31.40;;;;;;;2.62;75.57;94623.50;5028475;28;20038;-67
2021/01/02 03:07:47;;;;;;;54.17;33.85;;;;;;;2.90;74.43;94619.47;5028503;28;20475;-68
2021/01/02 03:10:15;;;;;;;53.60;31.70;;;;;;;3.02;74.21;94619.97;5028445;28;20464;-68
2021/01/02 03:12:46;;;;;;;48.25;29.25;;;;;;;3.04;73.58;94628.34;5030187;28;20036;-67
2021/01/02 03:15:13;;;;;;;53.97;31.48;;;;;;;2.91;74.49;94628.13;5027233;28;20482;-67
2021/01/02 03:17:40;;;;;;;47.13;29.08;;;;;;;3.24;73.89;94630.13;5028576;28;20403;-66
2021/01/02 03:20:06;;;;;;;48.00;29.40;;;;;;;3.35;73.35;94633.47;5028373;28;20493;-67
2021/01/02 03:22:32;;;;;;;49.00;29.80;;;;;;;3.23;72.48;94617.25;5028315;28;20037;-67
2021/01/02 03:24:57;;;;;;;45.85;29.45;;;;;;;3.38;72.79;94640.84;5029971;28;20040;-67
2021/01/02 03:27:22;;;;;;;45.80;29.35;;;;;;;3.05;72.92;94635.19;5028377;28;20102;-67
2021/01/02 03:29:48;;;;;;;44.60;28.75;;;;;;;2.51;75.18;94643.75;5027631;28;20034;-67
2021/01/02 03:32:13;;;;;;;47.30;28.83;;;;;;;3.12;74.03;94648.84;5027338;28;20037;-68
2021/01/02 03:34:39;;;;;;;48.33;29.25;;;;;;;3.41;73.00;94639.50;5026619;28;20042;-68
2021/01/02 03:37:04;;;;;;;39.03;26.42;;;;;;;3.33;72.11;94648.75;5029564;28;20638;-68
2021/01/02 03:39:30;;;;;;;42.85;27.08;;;;;;;2.94;73.28;94631.03;5033770;28;20025;-67
2021/01/02 03:41:55;;;;;;;44.10;28.63;;;;;;;2.83;73.06;94626.84;5031780;28;20448;-68
2021/01/02 03:44:20;;;;;;;43.92;27.42;;;;;;;3.13;73.01;94647.78;5031935;28;20049;-68
2021/01/02 03:46:46;;;;;;;38.58;25.55;;;;;;;2.95;73.56;94643.09;5032014;28;20574;-68
2021/01/02 03:49:11;;;;;;;47.78;28.23;;;;;;;2.87;73.39;94643.66;5030202;28;20026;-67
2021/01/02 03:51:36;;;;;;;41.47;27.08;;;;;;;2.84;73.50;94625.81;5033669;28;20112;-67
2021/01/02 03:54:01;;;;;;;41.45;27.35;;;;;;;2.89;73.32;94633.66;5031868;28;20099;-68
2021/01/02 03:56:27;;;;;;;43.42;27.25;;;;;;;2.50;74.33;94623.75;5031688;28;20034;-66
2021/01/02 03:58:52;;;;;;;43.83;28.15;;;;;;;2.63;74.53;94614.56;5030067;28;20124;-67
2021/01/02 04:01:18;;;;;;;45.20;27.67;;;;;;;2.82;74.33;94620.03;5030305;28;20041;-67
2021/01/02 04:03:43;;;;;;;56.05;31.17;;;;;;;2.97;73.52;94620.00;5032344;28;20034;-67
2021/01/02 04:06:08;;;;;;;42.53;27.67;;;;;;;2.91;73.42;94601.88;5030268;28;20392;-67
2021/01/02 04:08:34;;;;;;;45.13;27.58;;;;;;;3.19;72.53;94621.47;5030268;28;20054;-67
2021/01/02 04:10:59;;;;;;;42.88;27.55;;;;;;;2.96;73.17;94601.84;5031609;28;20041;-66
2021/01/02 04:13:24;;;;;;;44.33;26.25;;;;;;;2.88;72.83;94597.94;5031466;28;20037;-68
2021/01/02 04:15:50;;;;;;;41.42;26.73;;;;;;;2.74;73.63;94610.06;5033461;28;20379;-67
2021/01/02 04:18:15;;;;;;;43.55;26.63;;;;;;;2.96;73.21;94618.38;5031072;28;20128;-66
2021/01/02 04:20:40;;;;;;;40.13;26.50;;;;;;;3.05;72.62;94602.88;5030034;28;20034;-67
2021/01/02 04:23:06;;;;;;;34.22;23.02;;;;;;;3.27;72.12;94599.88;5029824;28;20537;-67
2021/01/02 04:25:31;;;;;;;35.33;24.08;;;;;;;3.58;71.99;94617.06;5029771;28;20068;-67
2021/01/02 04:27:56;;;;;;;36.55;22.83;;;;;;;3.65;70.71;94614.91;5031958;28;20056;-68
2021/01/02 04:30:22;;;;;;;35.72;24.35;;;;;;;3.78;70.81;94618.75;5029682;28;20045;-68
2021/01/02 04:32:49;;;;;;;34.35;23.58;;;;;;;3.70;69.51;94611.47;5029519;28;20061;-67
2021/01/02 04:35:15;;;;;;;31.85;20.50;;;;;;;3.54;69.60;94618.66;5030938;28;20479;-67
2021/01/02 04:37:41;;;;;;;35.17;21.65;;;;;;;3.11;71.02;94620.97;5031138;28;20121;-68
2021/01/02 04:40:16;;;;;;;32.92;22.27;;;;;;;3.39;70.66;94621.38;5030898;28;20045;-68
2021/01/02 04:42:42;;;;;;;35.05;22.42;;;;;;;3.06;71.02;94613.09;5032700;28;20022;-67
2021/01/02 04:45:09;;;;;;;36.88;22.73;;;;;;;2.58;72.80;94620.63;5031075;28;20045;-68
2021/01/02 04:47:36;;;;;;;27.35;19.73;;;;;;;2.46;73.05;94607.00;5030500;28;20056;-66
2021/01/02 04:50:03;;;;;;;31.85;21.35;;;;;;;2.38;73.34;94619.88;5029859;28;20048;-67
2021/01/02 04:52:29;;;;;;;34.58;20.50;;;;;;;2.51;73.53;94616.72;5030564;28;20061;-67
2021/01/02 04:54:56;;;;;;;32.60;21.73;;;;;;;2.69;73.04;94618.75;5032576;28;20033;-67
2021/01/02 04:57:21;;;;;;;33.45;20.30;;;;;;;2.32;73.56;94617.25;5030532;28;20446;-67
2021/01/02 04:59:50;;;;;;;32.75;21.25;;;;;;;2.59;73.96;94611.69;5029018;28;20430;-67
2021/01/02 05:02:20;;;;;;;34.72;20.92;;;;;;;2.40;73.60;94621.16;5030442;28;20124;-67
2021/01/02 05:04:49;;;;;;;29.40;20.27;;;;;;;2.03;75.42;94611.75;5030506;28;20081;-67
2021/01/02 05:07:29;;;;;;;32.70;22.00;;;;;;;2.19;74.69;94623.03;5030583;28;20040;-67
2021/01/02 05:09:55;;;;;;;35.20;21.83;;;;;;;2.46;74.53;94628.00;5032252;28;20033;-68
2021/01/02 05:12:29;;;;;;;28.55;19.30;;;;;;;1.83;75.14;94627.47;5030348;28;20037;-67
2021/01/02 05:15:00;;;;;;;31.67;19.23;;;;;;;2.22;74.59;94621.72;5030272;28;20045;-68
2021/01/02 05:17:29;;;;;;;25.98;16.83;;;;;;;2.27;73.85;94637.47;5030286;28;20038;-67
2021/01/02 05:20:01;;;;;;;26.02;18.73;;;;;;;2.41;73.69;94635.88;5030214;28;20548;-67
2021/01/02 05:22:26;;;;;;;22.63;17.25;;;;;;;2.65;72.66;94637.91;5030022;28;20527;-68
2021/01/02 05:25:23;;;;;;;23.17;16.67;;;;;;;2.67;72.03;94628.75;5032209;28;20109;-67
2021/01/02 05:27:50;;;;;;;25.42;16.60;;;;;;;2.62;71.46;94638.47;5028498;28;20052;-66
2021/01/02 05:30:16;;;;;;;25.67;17.42;;;;;;;2.27;72.76;94640.09;5028550;28;20080;-67
2021/01/02 05:33:05;;;;;;;21.95;17.55;;;;;;;2.41;72.67;94633.25;5028393;28;20495;-67
2021/01/02 05:35:46;;;;;;;24.80;16.48;;;;;;;1.95;73.65;94643.75;5029827;28;20044;-66
2021/01/02 05:38:13;;;;;;;21.77;17.13;;;;;;;2.25;73.49;94644.78;5030010;28;20049;-67
2021/01/02 05:40:50;;;;;;;23.08;16.98;;;;;;;2.08;73.81;94645.84;5029749;28;20052;-67
2021/01/02 05:43:18;;;;;;;23.30;16.80;;;;;;;2.41;73.07;94649.00;5028482;28;20033;-67
2021/01/02 05:45:44;;;;;;;23.70;16.80;;;;;;;2.02;73.61;94641.66;5031632;28;20045;-67
2021/01/02 05:48:15;;;;;;;22.02;15.43;;;;;;;2.31;72.86;94634.03;5029527;28;20042;-67
2021/01/02 05:50:43;;;;;;;20.75;15.13;;;;;;;1.95;72.79;94635.88;5029837;28;20088;-67
2021/01/02 05:53:28;;;;;;;24.02;16.45;;;;;;;1.71;74.21;94632.97;5029400;28;20056;-67
2021/01/02 05:55:57;;;;;;;24.73;15.85;;;;;;;2.01;74.36;94636.69;5029651;28;20415;-68
2021/01/02 05:58:23;;;;;;;21.80;16.17;;;;;;;2.28;73.27;94633.78;5029274;28;20411;-68
2021/01/02 06:00:48;;;;;;;21.23;16.05;;;;;;;2.34;72.00;94606.47;5031308;28;20021;-67
2021/01/02 06:03:26;;;;;;;22.70;15.68;;;;;;;2.45;72.22;94630.88;5029191;28;20045;-67
2021/01/02 06:05:59;;;;;;;20.42;15.00;;;;;;;2.02;72.70;94620.66;5029142;28;20042;-66
2021/01/02 06:08:31;;;;;;;20.35;15.30;;;;;;;1.61;75.12;94632.19;5028951;28;20041;-67
2021/01/02 06:11:00;;;;;;;14.77;12.18;;;;;;;0.84;76.80;94637.16;5029141;28;20048;-67
2021/01/02 06:13:28;;;;;;;19.45;14.80;;;;;;;1.55;75.35;94639.25;5028958;28;20045;-67
2021/01/02 06:15:58;;;;;;;19.35;14.75;;;;;;;2.05;74.17;94646.38;5029730;28;20033;-67
2021/01/02 06:18:24;;;;;;;17.98;14.25;;;;;;;2.41;72.79;94645.59;5029546;28;20404;-68
2021/01/02 06:20:49;;;;;;;17.52;13.07;;;;;;;2.81;71.33;94642.09;5029039;28;20037;-67
2021/01/02 06:23:17;;;;;;;17.88;13.82;;;;;;;3.01;69.95;94649.91;5028809;28;20208;-67
2021/01/02 06:25:43;;;;;;;15.05;12.68;;;;;;;2.90;69.26;94655.47;5028928;28;20037;-68
2021/01/02 06:28:08;;;;;;;15.75;12.98;;;;;;;2.66;68.57;94655.25;5028890;28;20021;-67
2021/01/02 06:30:34;;;;;;;16.45;13.98;;;;;;;2.71;68.88;94626.34;5030730;28;20033;-67
2021/01/02 06:32:59;;;;;;;16.77;14.15;;;;;;;2.86;68.64;94644.69;5028556;28;20491;-68
2021/01/02 06:35:25;;;;;;;16.63;14.82;;;;;;;2.66;68.64;94624.53;5028621;28;20045;-67
2021/01/02 06:37:56;;;;;;;17.48;14.07;;;;;;;2.94;68.26;94652.03;5028750;28;20115;-66
2021/01/02 06:40:25;;;;;;;17.65;13.95;;;;;;;2.65;69.17;94649.22;5028507;28;20048;-68
2021/01/02 06:43:01;;;;;;;15.65;14.05;;;;;;;2.69;68.50;94628.47;5030522;28;20423;-67
2021/01/02 06:45:35;;;;;;;21.10;15.70;;;;;;;2.79;68.17;94654.69;5029061;28;20083;-67
2021/01/02 06:48:12;;;;;;;19.58;15.57;;;;;;;2.67;69.13;94651.59;5028586;28;20057;-68
2021/01/02 06:50:38;;;;;;;18.67;15.15;;;;;;;2.44;69.26;94635.34;5028304;28;20064;-68
2021/01/02 06:53:27;;;;;;;23.48;16.33;;;;;;;2.52;69.45;94640.06;5028553;28;20503;-69
2021/01/02 06:56:00;;;;;;;20.92;15.73;;;;;;;2.76;68.90;94645.50;5028861;28;20120;-68
2021/01/02 06:58:37;;;;;;;20.30;16.48;;;;;;;2.57;68.97;94640.03;5028299;28;20041;-69
2021/01/02 07:01:29;;;;;;;20.17;15.93;;;;;;;2.56;68.74;94645.56;5028921;28;20061;-67
2021/01/02 07:03:55;;;;;;;17.63;15.55;;;;;;;2.79;68.22;94652.88;5031256;28;20112;-68
2021/01/02 07:06:20;;;;;;;23.10;16.55;;;;;;;2.87;68.59;94659.44;5029678;28;20451;-69
2021/01/02 07:08:49;;;;;;;21.08;16.75;;;;;;;2.52;68.21;94605.16;5030212;28;20037;-64
2021/01/02 07:11:26;;;;;;;19.95;14.98;;;;;;;2.38;68.23;94660.03;5028103;28;20041;-63
2021/01/02 07:14:11;;;;;;;20.00;16.35;;;;;;;2.39;70.37;94648.47;5033422;28;20034;-65
2021/01/02 07:16:52;;;;;;;19.23;15.02;;;;;;;2.43;69.84;94649.50;5033232;28;20043;-65
2021/01/02 07:19:23;;;;;;;18.23;15.10;;;;;;;2.73;68.86;94645.28;5033145;28;20029;-73
2021/01/02 07:21:58;;;;;;;19.08;14.57;;;;;;;2.39;69.33;94651.09;5033915;28;20120;-68
2021/01/02 07:24:25;;;;;;;23.02;16.45;;;;;;;2.30;69.64;94648.22;5049149;28;20037;-67
2021/01/02 07:27:01;;;;;;;22.20;16.67;;;;;;;2.30;69.57;94647.41;5033377;28;20056;-67
2021/01/02 07:29:29;;;;;;;20.77;15.60;;;;;;;1.83;71.12;94649.25;5032442;28;20033;-67
2021/01/02 07:32:08;;;;;;;22.50;15.63;;;;;;;1.37;73.00;94644.97;5033221;28;20079;-67
2021/01/02 07:34:34;;;;;;;24.45;16.92;;;;;;;1.31;74.51;94641.53;5033100;28;20056;-66
2021/01/02 07:37:08;;;;;;;23.42;15.52;;;;;;;1.01;75.16;94635.13;5033257;28;20030;-65
2021/01/02 07:39:34;;;;;;;21.52;16.60;;;;;;;1.25;74.62;94626.84;5034855;28;20013;-66
2021/01/02 07:42:04;;;;;;;22.02;15.55;;;;;;;1.24;74.04;94639.16;5033055;28;20037;-67
2021/01/02 07:44:29;;;;;;;23.73;17.58;;;;;;;1.30;73.86;94619.00;5032919;28;20128;-66
2021/01/02 07:46:54;;;;;;;22.50;16.70;;;;;;;1.07;74.96;94627.31;5033076;28;20594;-67
2021/01/02 07:49:20;;;;;;;26.10;17.33;;;;;;;1.54;73.59;94625.34;5032808;28;20041;-67
2021/01/02 07:51:49;;;;;;;27.27;16.70;;;;;;;1.64;73.47;94636.88;5033493;28;20467;-66
2021/01/02 07:54:31;;;;;;;24.02;17.73;;;;;;;2.30;72.71;94640.34;5032782;28;20064;-66
2021/01/02 07:56:56;;;;;;;26.38;18.17;;;;;;;2.68;70.88;94627.69;5032852;28;20062;-67
2021/01/02 07:59:39;;;;;;;25.67;17.42;;;;;;;3.11;70.01;94654.34;5032066;28;20037;-67
2021/01/02 08:02:07;;;;;;;25.67;18.88;;;;;;;3.11;68.11;94633.31;5032647;28;20037;-67
2021/01/02 08:04:33;;;;;;;25.23;18.52;;;;;;;2.99;67.57;94638.88;5032561;28;20537;-67
2021/01/02 08:07:02;;;;;;;24.98;18.27;;;;;;;2.71;67.33;94623.72;5032767;28;20025;-67
2021/01/02 08:09:28;;;;;;;23.23;18.17;;;;;;;1.98;71.64;94653.72;5034481;28;20022;-67
2021/01/02 08:12:02;;;;;;;21.25;16.83;;;;;;;2.36;70.29;94659.50;5032451;28;20037;-68
2021/01/02 08:14:30;;;;;;;23.30;17.70;;;;;;;1.86;71.29;94652.41;5032077;28;20029;-72
2021/01/02 08:17:01;;;;;;;25.20;18.58;;;;;;;2.20;70.99;94657.91;5030973;28;20030;-65
2021/01/02 08:19:34;;;;;;;26.50;18.92;;;;;;;2.55;70.31;94670.22;5030454;28;20045;-64
2021/01/02 08:22:04;;;;;;;26.20;18.73;;;;;;;2.32;70.45;94650.56;5030827;28;20071;-63
2021/01/02 08:24:29;;;;;;;21.70;17.83;;;;;;;2.13;71.30;94652.94;5032365;28;20379;-66
2021/01/02 08:26:56;;;;;;;23.42;17.60;;;;;;;2.78;70.01;94655.75;5032212;28;20042;-64
2021/01/02 08:29:23;;;;;;;22.35;17.30;;;;;;;3.10;68.72;94661.44;5030066;28;20037;-64
2021/01/02 08:31:58;;;;;;;24.33;18.13;;;;;;;3.29;67.65;94655.59;5031838;28;20076;-64
2021/01/02 08:34:27;;;;;;;24.75;18.13;;;;;;;3.46;66.83;94642.88;5032053;28;20041;-64
2021/01/02 08:37:00;;;;;;;24.00;17.95;;;;;;;3.63;66.31;94650.41;5034277;28;20083;-66
2021/01/02 08:39:26;;;;;;;23.08;17.38;;;;;;;3.74;65.42;94632.75;5032208;28;20118;-69
2021/01/02 08:41:54;;;;;;;23.92;18.33;;;;;;;3.85;64.84;94652.69;5030433;28;20506;-66
2021/01/02 08:44:31;;;;;;;25.17;18.45;;;;;;;3.75;64.53;94642.22;5031433;28;20399;-66
2021/01/02 08:46:57;;;;;;;24.73;18.58;;;;;;;3.91;64.45;94644.47;5031761;28;20543;-67
2021/01/02 08:49:30;;;;;;;24.17;16.60;;;;;;;4.11;64.40;94638.28;5030959;28;20042;-65
2021/01/02 08:52:15;;;;;;;18.88;16.02;;;;;;;3.91;63.57;94641.06;5033501;28;20029;-64
2021/01/02 08:54:40;;;;;;;21.23;16.10;;;;;;;2.17;69.33;94638.25;5047387;28;20049;-65
2021/01/02 08:57:28;;;;;;;18.02;14.88;;;;;;;3.41;67.15;94653.44;5031115;28;20045;-65
2021/01/02 09:00:10;;;;;;;21.33;15.88;;;;;;;3.94;64.90;94645.75;5031154;28;20080;-65
2021/01/02 09:02:38;;;;;;;29.02;15.45;;;;;;;4.11;63.13;94643.53;5031191;28;20439;-65
2021/01/02 09:05:17;;;;;;;17.65;13.98;;;;;;;4.38;62.45;94647.53;5031439;28;20056;-68
2021/01/02 09:08:16;;;;;;;17.50;15.15;;;;;;;4.64;61.93;94643.59;5031361;28;20141;-68
2021/01/02 09:10:44;;;;;;;20.63;14.95;;;;;;;4.77;61.13;94659.84;5016741;28;20376;-67
2021/01/02 09:13:20;;;;;;;20.60;15.63;;;;;;;4.85;60.90;94667.91;5030969;28;20030;-66
2021/01/02 09:15:51;;;;;;;21.15;15.93;;;;;;;4.85;60.94;94673.16;5032976;28;20450;-65
2021/01/02 09:18:25;;;;;;;21.00;16.45;;;;;;;4.63;61.00;94671.00;5029865;28;20041;-65
2021/01/02 09:20:51;;;;;;;18.92;16.08;;;;;;;4.56;60.37;94673.19;5029852;28;20120;-67
2021/01/02 09:23:31;;;;;;;23.13;17.95;;;;;;;4.59;61.18;94675.25;5030890;28;20136;-65
2021/01/02 09:25:56;;;;;;;21.05;16.55;;;;;;;3.56;64.03;94657.81;5029493;28;20029;-66
2021/01/02 09:28:22;;;;;;;22.58;16.67;;;;;;;4.10;63.35;94678.81;5029108;28;20564;-65
2021/01/02 09:30:48;;;;;;;17.88;15.35;;;;;;;4.23;62.40;94679.25;5033116;28;20017;-65
2021/01/02 09:33:15;;;;;;;20.10;15.68;;;;;;;4.34;62.09;94683.38;5030840;28;20080;-64
2021/01/02 09:35:42;;;;;;;18.48;15.88;;;;;;;4.34;61.39;94670.22;5030305;28;20087;-67
2021/01/02 09:38:08;;;;;;;18.65;15.57;;;;;;;4.52;61.02;94672.16;5029143;28;20090;-65
2021/01/02 09:40:36;;;;;;;24.45;18.17;;;;;;;4.40;61.03;94671.72;5030650;28;20052;-68
2021/01/02 09:43:03;;;;;;;19.63;16.67;;;;;;;4.41;60.84;94674.09;5030242;28;20374;-65
2021/01/02 09:45:29;;;;;;;20.40;16.77;;;;;;;4.39;60.83;94676.22;5032531;28;20038;-66
2021/01/02 09:47:55;;;;;;;21.58;16.75;;;;;;;4.20;60.85;94666.63;5029456;28;20119;-66
2021/01/02 09:50:20;;;;;;;20.95;15.68;;;;;;;4.26;60.60;94670.81;5030023;28;20555;-65
2021/01/02 09:52:45;;;;;;;18.80;16.02;;;;;;;4.34;60.23;94678.88;5028941;28;20033;-67
2021/01/02 09:55:11;;;;;;;19.98;16.75;;;;;;;4.27;60.24;94654.72;5030269;28;20523;-67
2021/01/02 09:57:37;;;;;;;18.75;16.48;;;;;;;4.55;60.38;94678.72;5030698;28;20113;-68
2021/01/02 10:00:05;;;;;;;23.63;17.15;;;;;;;4.48;60.01;94668.50;5028705;28;20040;-67
2021/01/02 10:02:31;;;;;;;21.08;16.45;;;;;;;4.60;60.14;94683.94;5030189;28;20045;-67
2021/01/02 10:04:56;;;;;;;22.48;16.98;;;;;;;4.63;59.97;94681.56;5030375;28;20124;-68
2021/01/02 10:07:21;;;;;;;23.48;18.25;;;;;;;4.48;59.61;94668.50;5030468;28;20048;-67
2021/01/02 10:09:47;;;;;;;23.08;17.83;;;;;;;4.58;59.71;94692.13;5031890;28;20502;-68
2021/01/02 10:12:14;;;;;;;25.88;17.75;;;;;;;4.51;60.10;94694.31;5028772;28;20426;-68
2021/01/02 10:14:40;;;;;;;22.55;18.10;;;;;;;4.31;60.05;94660.25;5030053;28;20037;-67
2021/01/02 10:17:06;;;;;;;24.15;17.27;;;;;;;4.35;60.39;94648.06;5030011;28;20441;-72
2021/01/02 10:19:32;;;;;;;22.90;17.25;;;;;;;4.25;60.29;94667.41;5029945;28;20033;-67
2021/01/02 10:22:01;;;;;;;25.42;17.75;;;;;;;4.20;60.49;94645.56;5031863;28;20379;-67
2021/01/02 10:24:28;;;;;;;25.90;18.75;;;;;;;4.00;61.22;94636.78;5030226;28;20049;-67
2021/01/02 10:26:53;;;;;;;26.40;19.17;;;;;;;4.18;60.95;94643.22;5030073;28;20039;-67
2021/01/02 10:29:19;;;;;;;22.75;18.25;;;;;;;4.06;60.55;94604.09;5029344;28;20124;-67
2021/01/02 10:31:44;;;;;;;24.13;18.27;;;;;;;4.28;60.76;94637.88;5029774;28;20042;-67
2021/01/02 10:34:10;;;;;;;24.48;17.88;;;;;;;4.40;60.34;94646.22;5029735;28;20029;-68
2021/01/02 10:36:35;;;;;;;25.45;18.55;;;;;;;4.51;60.39;94651.38;5030496;28;20026;-66
2021/01/02 10:39:00;;;;;;;25.55;18.95;;;;;;;4.54;59.96;94630.53;5029560;28;20034;-66
2021/01/02 10:41:25;;;;;;;24.58;19.13;;;;;;;4.39;59.23;94631.44;5029396;28;20518;-67
2021/01/02 10:43:51;;;;;;;25.98;18.67;;;;;;;4.40;59.38;94645.41;5029811;28;20033;-68
2021/01/02 10:46:16;;;;;;;27.13;19.65;;;;;;;4.42;59.53;94636.19;5028652;28;20021;-67
2021/01/02 10:48:42;;;;;;;24.73;19.02;;;;;;;4.49;59.59;94627.16;5031339;28;20021;-68
2021/01/02 10:51:14;;;;;;;26.00;18.65;;;;;;;4.49;59.39;94635.84;5029431;28;20030;-70
2021/01/02 10:53:40;;;;;;;23.05;18.15;;;;;;;4.31;59.09;94610.22;5028410;28;20116;-69
2021/01/02 10:56:14;;;;;;;22.20;17.27;;;;;;;4.42;58.78;94599.31;5028245;28;20148;-70
2021/01/02 10:58:39;;;;;;;23.98;18.08;;;;;;;4.72;58.64;94623.00;5027410;28;20065;-68
2021/01/02 11:01:05;;;;;;;20.20;16.30;;;;;;;4.62;58.52;94587.78;5029652;28;20085;-72
2021/01/02 11:03:32;;;;;;;22.63;17.20;;;;;;;4.50;58.57;94590.00;5031414;28;20025;-75
2021/01/02 11:06:14;;;;;;;23.40;18.92;;;;;;;4.45;59.08;94616.38;5029521;28;20041;-68
2021/01/02 11:08:39;;;;;;;24.85;18.40;;;;;;;4.47;58.58;94602.97;5028159;28;20041;-67
2021/01/02 11:11:05;;;;;;;25.65;18.08;;;;;;;4.29;59.52;94602.56;5027750;28;20067;-77
2021/01/02 11:13:31;;;;;;;26.58;18.40;;;;;;;4.38;58.87;94621.19;5028175;28;20061;-72
2021/01/02 11:15:56;;;;;;;24.52;18.33;;;;;;;4.35;59.47;94584.88;5030162;28;20061;-71
2021/01/02 11:18:22;;;;;;;25.85;17.83;;;;;;;4.00;59.47;94536.00;5029368;28;20045;-72
2021/01/02 11:20:47;;;;;;;26.42;19.05;;;;;;;4.14;59.39;94581.66;5029286;28;20038;-73
2021/01/02 11:23:17;;;;;;;25.85;18.58;;;;;;;4.27;59.55;94599.44;5027365;28;20042;-71
2021/01/02 11:25:43;;;;;;;23.92;18.98;;;;;;;4.09;59.96;94593.00;5029636;28;20041;-83
2021/01/02 11:28:08;;;;;;;25.95;18.17;;;;;;;3.95;59.46;94601.84;5027438;28;20033;-67
2021/01/02 11:30:34;;;;;;;24.70;18.33;;;;;;;3.85;60.16;94577.16;5030994;28;20029;-67
2021/01/02 11:32:59;;;;;;;27.75;20.45;;;;;;;4.27;59.28;94588.13;5028906;28;20055;-73
2021/01/02 11:35:24;;;;;;;28.55;17.95;;;;;;;4.03;59.84;94583.59;5028732;28;20041;-75
2021/01/02 11:37:50;;;;;;;23.45;18.27;;;;;;;3.87;59.15;94538.19;5029547;28;20038;-78
2021/01/02 11:40:17;;;;;;;31.70;20.30;;;;;;;3.88;59.84;94592.38;5028493;28;20030;-74